PRIVATE WETTERSTATION BILLIGHEIM-ALLFELD                       ZURCK
Wetterdaten: Mittwoch, 05.04.2017
Datum Zeit Temp. A. Temp. A. min Temp. A. max Feuchte A. Luftdruck Regen Wind Richtung Richtung Sonnenschein ET Solar Taupunkt Windchill Windben Empfang
05.04.2017 00:00 7,8 C 7,8 C 7,9 C 83 % 1022,1 hPa 0,0 l/m 0,0 km/h (0 Bft) O 90 0 min 0,000 mm 0 W/m 5,1 C 7,8 C 4,8 km/h (1 Bft) 100 %
05.04.2017 00:10 7,8 C 7,8 C 7,8 C 83 % 1022,2 hPa 0,0 l/m 0,0 km/h (0 Bft) O 90 0 min 0,000 mm 0 W/m 5,1 C 7,8 C 1,6 km/h (1 Bft) 100 %
05.04.2017 00:20 7,7 C 7,7 C 7,8 C 84 % 1022,2 hPa 0,0 l/m 0,0 km/h (0 Bft) N 0 0 min 0,000 mm 0 W/m 5,2 C 7,7 C 0,0 km/h (0 Bft) 100 %
05.04.2017 00:30 7,4 C 7,4 C 7,7 C 84 % 1022,2 hPa 0,0 l/m 0,0 km/h (0 Bft) N 0 0 min 0,000 mm 0 W/m 4,9 C 7,4 C 0,0 km/h (0 Bft) 100 %
05.04.2017 00:40 7,2 C 7,2 C 7,4 C 85 % 1022,2 hPa 0,0 l/m 0,0 km/h (0 Bft) N 0 0 min 0,000 mm 0 W/m 4,9 C 7,2 C 0,0 km/h (0 Bft) 100 %
05.04.2017 00:50 6,9 C 6,9 C 7,2 C 86 % 1022,1 hPa 0,0 l/m 0,0 km/h (0 Bft) N 0 0 min 0,000 mm 0 W/m 4,7 C 6,9 C 0,0 km/h (0 Bft) 100 %
05.04.2017 01:00 6,7 C 6,7 C 6,8 C 87 % 1022,2 hPa 0,0 l/m 0,0 km/h (0 Bft) N 0 0 min 0,000 mm 0 W/m 4,7 C 6,7 C 0,0 km/h (0 Bft) 100 %
05.04.2017 01:10 6,5 C 6,5 C 6,7 C 88 % 1022,1 hPa 0,0 l/m 0,0 km/h (0 Bft) N 0 0 min 0,000 mm 0 W/m 4,7 C 6,5 C 0,0 km/h (0 Bft) 100 %
05.04.2017 01:20 6,3 C 6,3 C 6,6 C 87 % 1022,1 hPa 0,0 l/m 0,0 km/h (0 Bft) N 0 0 min 0,000 mm 0 W/m 4,3 C 6,3 C 0,0 km/h (0 Bft) 100 %
05.04.2017 01:30 6,0 C 6,0 C 6,3 C 88 % 1022,0 hPa 0,0 l/m 0,0 km/h (0 Bft) N 0 0 min 0,000 mm 0 W/m 4,2 C 6,0 C 0,0 km/h (0 Bft) 100 %
05.04.2017 01:40 5,7 C 5,7 C 6,0 C 89 % 1022,1 hPa 0,0 l/m 0,0 km/h (0 Bft) O 90 0 min 0,000 mm 0 W/m 4,0 C 5,7 C 1,6 km/h (1 Bft) 100 %
05.04.2017 01:50 5,5 C 5,5 C 5,7 C 89 % 1021,9 hPa 0,0 l/m 0,0 km/h (0 Bft) N 0 0 min 0,000 mm 0 W/m 3,8 C 5,5 C 0,0 km/h (0 Bft) 100 %
05.04.2017 02:00 5,3 C 5,3 C 5,5 C 89 % 1021,9 hPa 0,0 l/m 0,0 km/h (0 Bft) N 0 0 min 0,000 mm 0 W/m 3,6 C 5,3 C 0,0 km/h (0 Bft) 100 %
05.04.2017 02:10 5,1 C 5,1 C 5,3 C 89 % 1021,9 hPa 0,0 l/m 0,0 km/h (0 Bft) O 90 0 min 0,000 mm 0 W/m 3,4 C 5,1 C 3,2 km/h (1 Bft) 100 %
05.04.2017 02:20 4,9 C 4,9 C 5,1 C 90 % 1021,7 hPa 0,0 l/m 0,0 km/h (0 Bft) O 90 0 min 0,000 mm 0 W/m 3,4 C 4,9 C 1,6 km/h (1 Bft) 100 %
05.04.2017 02:30 4,7 C 4,7 C 4,9 C 90 % 1021,6 hPa 0,0 l/m 0,0 km/h (0 Bft) N 0 0 min 0,000 mm 0 W/m 3,2 C 4,7 C 0,0 km/h (0 Bft) 100 %
05.04.2017 02:40 4,5 C 4,5 C 4,7 C 90 % 1021,7 hPa 0,0 l/m 0,0 km/h (0 Bft) N 0 0 min 0,000 mm 0 W/m 3,0 C 4,5 C 0,0 km/h (0 Bft) 100 %
05.04.2017 02:50 4,4 C 4,4 C 4,5 C 90 % 1021,6 hPa 0,0 l/m 0,0 km/h (0 Bft) O 90 0 min 0,000 mm 0 W/m 2,9 C 4,4 C 3,2 km/h (1 Bft) 100 %
05.04.2017 03:00 4,4 C 4,4 C 4,4 C 90 % 1021,6 hPa 0,0 l/m 0,0 km/h (0 Bft) O-NO 67 0 min 0,000 mm 0 W/m 2,9 C 4,4 C 1,6 km/h (1 Bft) 100 %
05.04.2017 03:10 4,1 C 4,1 C 4,4 C 90 % 1021,6 hPa 0,0 l/m 0,0 km/h (0 Bft) N 0 0 min 0,000 mm 0 W/m 2,6 C 4,1 C 0,0 km/h (0 Bft) 100 %
05.04.2017 03:20 3,8 C 3,8 C 4,1 C 90 % 1021,6 hPa 0,0 l/m 0,0 km/h (0 Bft) N 0 0 min 0,000 mm 0 W/m 2,3 C 3,8 C 0,0 km/h (0 Bft) 100 %
05.04.2017 03:30 3,6 C 3,6 C 3,8 C 90 % 1021,8 hPa 0,0 l/m 0,0 km/h (0 Bft) O-NO 67 0 min 0,000 mm 0 W/m 2,1 C 3,6 C 3,2 km/h (1 Bft) 100 %
05.04.2017 03:40 3,4 C 3,4 C 3,6 C 90 % 1021,6 hPa 0,0 l/m 0,0 km/h (0 Bft) N 0 0 min 0,000 mm 0 W/m 1,9 C 3,4 C 0,0 km/h (0 Bft) 100 %
05.04.2017 03:50 3,7 C 3,5 C 3,7 C 90 % 1021,9 hPa 0,0 l/m 0,0 km/h (0 Bft) NO 45 0 min 0,000 mm 0 W/m 2,2 C 3,7 C 3,2 km/h (1 Bft) 100 %
05.04.2017 04:00 3,7 C 3,7 C 3,8 C 90 % 1022,0 hPa 0,0 l/m 0,0 km/h (0 Bft) N 0 0 min 0,000 mm 0 W/m 2,2 C 3,7 C 0,0 km/h (0 Bft) 100 %
05.04.2017 04:10 3,6 C 3,6 C 3,7 C 90 % 1022,0 hPa 0,0 l/m 0,0 km/h (0 Bft) N 0 0 min 0,000 mm 0 W/m 2,1 C 3,6 C 0,0 km/h (0 Bft) 100 %
05.04.2017 04:20 3,3 C 3,3 C 3,6 C 91 % 1022,0 hPa 0,0 l/m 0,0 km/h (0 Bft) N 360 0 min 0,000 mm 0 W/m 2,0 C 3,3 C 4,8 km/h (1 Bft) 99 %
05.04.2017 04:30 3,2 C 3,2 C 3,3 C 91 % 1021,9 hPa 0,0 l/m 0,0 km/h (0 Bft) N 0 0 min 0,000 mm 0 W/m 1,9 C 3,2 C 0,0 km/h (0 Bft) 100 %
05.04.2017 04:40 3,1 C 3,1 C 3,2 C 91 % 1022,1 hPa 0,0 l/m 0,0 km/h (0 Bft) N 0 0 min 0,000 mm 0 W/m 1,8 C 3,1 C 0,0 km/h (0 Bft) 100 %
05.04.2017 04:50 2,9 C 2,9 C 3,1 C 91 % 1022,1 hPa 0,0 l/m 0,0 km/h (0 Bft) N 0 0 min 0,000 mm 0 W/m 1,6 C 2,9 C 0,0 km/h (0 Bft) 100 %
05.04.2017 05:00 2,7 C 2,7 C 2,9 C 91 % 1022,1 hPa 0,0 l/m 0,0 km/h (0 Bft) N 0 0 min 0,000 mm 0 W/m 1,4 C 2,7 C 0,0 km/h (0 Bft) 100 %
05.04.2017 05:10 2,6 C 2,6 C 2,7 C 91 % 1022,1 hPa 0,0 l/m 0,0 km/h (0 Bft) N 0 0 min 0,000 mm 0 W/m 1,3 C 2,6 C 0,0 km/h (0 Bft) 100 %
05.04.2017 05:20 2,5 C 2,5 C 2,6 C 91 % 1022,1 hPa 0,0 l/m 0,0 km/h (0 Bft) N 0 0 min 0,000 mm 0 W/m 1,2 C 2,5 C 0,0 km/h (0 Bft) 100 %
05.04.2017 05:30 2,4 C 2,4 C 2,5 C 91 % 1022,1 hPa 0,0 l/m 0,0 km/h (0 Bft) N 360 0 min 0,000 mm 0 W/m 1,1 C 2,4 C 3,2 km/h (1 Bft) 100 %
05.04.2017 05:40 2,4 C 2,4 C 2,4 C 91 % 1022,2 hPa 0,0 l/m 0,0 km/h (0 Bft) N 0 0 min 0,000 mm 0 W/m 1,1 C 2,4 C 0,0 km/h (0 Bft) 100 %
05.04.2017 05:50 2,3 C 2,3 C 2,4 C 91 % 1022,2 hPa 0,0 l/m 0,0 km/h (0 Bft) N-NO 22 0 min 0,000 mm 0 W/m 1,0 C 2,3 C 4,8 km/h (1 Bft) 100 %
05.04.2017 06:00 2,8 C 2,4 C 2,8 C 91 % 1022,2 hPa 0,0 l/m 0,0 km/h (0 Bft) N-NO 22 0 min 0,000 mm 0 W/m 1,5 C 2,8 C 4,8 km/h (1 Bft) 100 %
05.04.2017 06:10 2,7 C 2,7 C 2,8 C 91 % 1022,3 hPa 0,0 l/m 0,0 km/h (0 Bft) N-NO 22 0 min 0,000 mm 0 W/m 1,4 C 2,7 C 3,2 km/h (1 Bft) 100 %
05.04.2017 06:20 2,6 C 2,5 C 2,7 C 91 % 1022,3 hPa 0,0 l/m 0,0 km/h (0 Bft) N-NO 22 0 min 0,000 mm 0 W/m 1,3 C 2,6 C 4,8 km/h (1 Bft) 100 %
05.04.2017 06:30 2,8 C 2,6 C 2,8 C 91 % 1022,4 hPa 0,0 l/m 0,0 km/h (0 Bft) N 0 0 min 0,000 mm 0 W/m 1,5 C 2,8 C 0,0 km/h (0 Bft) 100 %
05.04.2017 06:40 2,8 C 2,8 C 2,8 C 91 % 1022,4 hPa 0,0 l/m 0,0 km/h (0 Bft) N 0 0 min 0,000 mm 0 W/m 1,5 C 2,8 C 0,0 km/h (0 Bft) 100 %
05.04.2017 06:50 2,7 C 2,7 C 2,8 C 91 % 1022,5 hPa 0,0 l/m 0,0 km/h (0 Bft) N-NO 22 0 min 0,000 mm 0 W/m 1,4 C 2,7 C 3,2 km/h (1 Bft) 100 %
05.04.2017 07:00 2,6 C 2,6 C 2,7 C 91 % 1022,5 hPa 0,0 l/m 0,0 km/h (0 Bft) N 0 0 min 0,000 mm 7 W/m 1,3 C 2,6 C 0,0 km/h (0 Bft) 100 %
05.04.2017 07:10 2,7 C 2,6 C 2,7 C 91 % 1022,5 hPa 0,0 l/m 0,0 km/h (0 Bft) N-NO 22 0 min 0,000 mm 12 W/m 1,4 C 2,7 C 1,6 km/h (1 Bft) 100 %
05.04.2017 07:20 2,9 C 2,7 C 2,9 C 91 % 1022,6 hPa 0,0 l/m 0,0 km/h (0 Bft) N 0 0 min 0,000 mm 19 W/m 1,6 C 2,9 C 0,0 km/h (0 Bft) 100 %
05.04.2017 07:30 2,9 C 2,8 C 2,9 C 91 % 1022,6 hPa 0,0 l/m 0,0 km/h (0 Bft) N-NO 22 0 min 0,000 mm 25 W/m 1,6 C 2,9 C 1,6 km/h (1 Bft) 100 %
05.04.2017 07:40 2,9 C 2,9 C 2,9 C 91 % 1022,7 hPa 0,0 l/m 3,2 km/h (1 Bft) N 360 0 min 0,000 mm 30 W/m 1,6 C 2,9 C 6,4 km/h (2 Bft) 90 %
05.04.2017 07:50 2,8 C 2,8 C 2,9 C 91 % 1023,0 hPa 0,0 l/m 0,0 km/h (0 Bft) N-NW 337 0 min 0,000 mm 37 W/m 1,5 C 2,8 C 3,2 km/h (1 Bft) 100 %
05.04.2017 08:00 2,9 C 2,8 C 2,9 C 91 % 1023,1 hPa 0,0 l/m 0,0 km/h (0 Bft) N 0 0 min 0,000 mm 42 W/m 1,6 C 2,9 C 0,0 km/h (0 Bft) 100 %
05.04.2017 08:10 2,9 C 2,9 C 2,9 C 91 % 1023,1 hPa 0,0 l/m 0,0 km/h (0 Bft) N-NW 337 0 min 0,000 mm 51 W/m 1,6 C 2,9 C 4,8 km/h (1 Bft) 100 %
05.04.2017 08:20 3,1 C 2,9 C 3,1 C 91 % 1023,1 hPa 0,0 l/m 0,0 km/h (0 Bft) N 0 0 min 0,000 mm 83 W/m 1,8 C 3,1 C 0,0 km/h (0 Bft) 100 %
05.04.2017 08:30 3,7 C 3,2 C 3,7 C 91 % 1023,1 hPa 0,0 l/m 0,0 km/h (0 Bft) N 0 10 min 0,000 mm 153 W/m 2,4 C 3,7 C 0,0 km/h (0 Bft) 100 %
05.04.2017 08:40 4,4 C 3,7 C 4,4 C 91 % 1023,1 hPa 0,0 l/m 0,0 km/h (0 Bft) N 0 10 min 0,000 mm 229 W/m 3,1 C 4,4 C 0,0 km/h (0 Bft) 100 %
05.04.2017 08:50 5,1 C 4,4 C 5,1 C 91 % 1023,1 hPa 0,0 l/m 3,2 km/h (1 Bft) N-NW 337 10 min 0,000 mm 260 W/m 3,8 C 5,1 C 9,7 km/h (2 Bft) 100 %
05.04.2017 09:00 6,1 C 5,2 C 6,1 C 91 % 1023,2 hPa 0,0 l/m 0,0 km/h (0 Bft) N 360 10 min 0,051 mm 288 W/m 4,7 C 6,1 C 4,8 km/h (1 Bft) 100 %
05.04.2017 09:10 6,8 C 6,1 C 6,8 C 90 % 1023,3 hPa 0,0 l/m 0,0 km/h (0 Bft) N 360 10 min 0,000 mm 313 W/m 5,3 C 6,8 C 4,8 km/h (1 Bft) 100 %
05.04.2017 09:20 7,4 C 6,8 C 7,4 C 88 % 1023,2 hPa 0,0 l/m 0,0 km/h (0 Bft) N 360 10 min 0,000 mm 343 W/m 5,5 C 7,4 C 8,0 km/h (2 Bft) 100 %
05.04.2017 09:30 8,1 C 7,4 C 8,1 C 87 % 1023,3 hPa 0,0 l/m 0,0 km/h (0 Bft) N 0 10 min 0,000 mm 373 W/m 6,1 C 8,1 C 0,0 km/h (0 Bft) 100 %
05.04.2017 09:40 8,7 C 8,1 C 8,7 C 85 % 1023,4 hPa 0,0 l/m 0,0 km/h (0 Bft) N 0 10 min 0,000 mm 411 W/m 6,3 C 8,7 C 0,0 km/h (0 Bft) 100 %
05.04.2017 09:50 9,5 C 8,7 C 9,5 C 82 % 1023,4 hPa 0,0 l/m 0,0 km/h (0 Bft) N 0 10 min 0,000 mm 441 W/m 6,6 C 9,5 C 0,0 km/h (0 Bft) 100 %
05.04.2017 10:00 10,5 C 9,5 C 10,5 C 82 % 1023,5 hPa 0,0 l/m 1,6 km/h (1 Bft) N-NW 337 10 min 0,152 mm 466 W/m 7,6 C 10,5 C 8,0 km/h (2 Bft) 100 %
05.04.2017 10:10 10,9 C 10,5 C 10,9 C 79 % 1023,6 hPa 0,0 l/m 1,6 km/h (1 Bft) NW 315 10 min 0,000 mm 503 W/m 7,4 C 10,9 C 8,0 km/h (2 Bft) 100 %
05.04.2017 10:20 11,3 C 10,9 C 11,3 C 75 % 1023,4 hPa 0,0 l/m 0,0 km/h (0 Bft) N 0 10 min 0,000 mm 526 W/m 7,0 C 11,3 C 0,0 km/h (0 Bft) 90 %
05.04.2017 10:30 11,7 C 11,3 C 11,7 C 77 % 1023,3 hPa 0,0 l/m 0,0 km/h (0 Bft) NW 315 10 min 0,000 mm 561 W/m 7,8 C 11,7 C 1,6 km/h (1 Bft) 100 %
05.04.2017 10:40 12,4 C 11,7 C 12,4 C 72 % 1023,2 hPa 0,0 l/m 0,0 km/h (0 Bft) N 0 10 min 0,000 mm 603 W/m 7,5 C 12,4 C 0,0 km/h (0 Bft) 100 %
05.04.2017 10:50 13,1 C 12,4 C 13,1 C 72 % 1023,3 hPa 0,0 l/m 1,6 km/h (1 Bft) NW 315 10 min 0,000 mm 652 W/m 8,2 C 13,1 C 8,0 km/h (2 Bft) 100 %
05.04.2017 11:00 13,9 C 13,2 C 13,9 C 63 % 1023,2 hPa 0,0 l/m 0,0 km/h (0 Bft) NW 315 10 min 0,279 mm 666 W/m 7,0 C 13,9 C 6,4 km/h (2 Bft) 100 %
05.04.2017 11:10 14,3 C 13,9 C 14,3 C 62 % 1023,2 hPa 0,0 l/m 1,6 km/h (1 Bft) NW 315 10 min 0,000 mm 624 W/m 7,1 C 14,3 C 9,7 km/h (2 Bft) 100 %
05.04.2017 11:20 13,5 C 13,5 C 14,3 C 64 % 1023,1 hPa 0,0 l/m 0,0 km/h (0 Bft) W 270 10 min 0,000 mm 668 W/m 6,8 C 13,5 C 1,6 km/h (1 Bft) 100 %
05.04.2017 11:30 13,3 C 13,2 C 13,5 C 65 % 1023,1 hPa 0,0 l/m 0,0 km/h (0 Bft) N 0 10 min 0,000 mm 640 W/m 6,9 C 13,3 C 0,0 km/h (0 Bft) 100 %
05.04.2017 11:40 13,4 C 13,3 C 13,6 C 58 % 1023,1 hPa 0,0 l/m 0,0 km/h (0 Bft) W-NW 292 10 min 0,000 mm 701 W/m 5,3 C 13,4 C 3,2 km/h (1 Bft) 100 %
05.04.2017 11:50 13,4 C 13,3 C 13,4 C 66 % 1023,2 hPa 0,0 l/m 0,0 km/h (0 Bft) SW 225 10 min 0,000 mm 710 W/m 7,2 C 13,4 C 1,6 km/h (1 Bft) 100 %
05.04.2017 12:00 14,3 C 13,4 C 14,3 C 60 % 1023,2 hPa 0,0 l/m 3,2 km/h (1 Bft) W-NW 292 10 min 0,305 mm 710 W/m 6,6 C 14,3 C 9,7 km/h (2 Bft) 100 %
05.04.2017 12:10 14,6 C 14,3 C 14,6 C 54 % 1023,3 hPa 0,0 l/m 1,6 km/h (1 Bft) NW 315 10 min 0,000 mm 722 W/m 5,4 C 14,6 C 11,3 km/h (2 Bft) 100 %
05.04.2017 12:20 14,8 C 14,6 C 14,8 C 61 % 1023,1 hPa 0,0 l/m 3,2 km/h (1 Bft) W-NW 292 10 min 0,000 mm 796 W/m 7,4 C 14,8 C 19,3 km/h (3 Bft) 100 %
05.04.2017 12:30 15,1 C 14,8 C 15,1 C 58 % 1023,1 hPa 0,0 l/m 4,8 km/h (1 Bft) NW 315 10 min 0,000 mm 817 W/m 6,9 C 15,1 C 19,3 km/h (3 Bft) 100 %
05.04.2017 12:40 15,5 C 15,1 C 15,5 C 56 % 1022,9 hPa 0,0 l/m 1,6 km/h (1 Bft) W-NW 292 10 min 0,000 mm 835 W/m 6,8 C 15,5 C 9,7 km/h (2 Bft) 100 %
05.04.2017 12:50 15,4 C 15,3 C 15,5 C 60 % 1022,9 hPa 0,0 l/m 1,6 km/h (1 Bft) NW 315 10 min 0,000 mm 756 W/m 7,7 C 15,4 C 14,5 km/h (3 Bft) 100 %
05.04.2017 13:00 15,1 C 15,1 C 15,4 C 58 % 1022,9 hPa 0,0 l/m 1,6 km/h (1 Bft) NW 315 10 min 0,356 mm 359 W/m 6,9 C 15,1 C 9,7 km/h (2 Bft) 100 %
05.04.2017 13:10 15,3 C 15,1 C 15,3 C 59 % 1022,8 hPa 0,0 l/m 3,2 km/h (1 Bft) NW 315 10 min 0,000 mm 930 W/m 7,3 C 15,3 C 14,5 km/h (3 Bft) 100 %
05.04.2017 13:20 15,6 C 15,3 C 15,6 C 58 % 1022,7 hPa 0,0 l/m 3,2 km/h (1 Bft) NW 315 10 min 0,000 mm 1002 W/m 7,4 C 15,6 C 11,3 km/h (2 Bft) 100 %
05.04.2017 13:30 15,1 C 15,1 C 15,6 C 54 % 1022,5 hPa 0,0 l/m 3,2 km/h (1 Bft) NW 315 10 min 0,000 mm 306 W/m 5,9 C 15,1 C 19,3 km/h (3 Bft) 100 %
05.04.2017 13:40 15,1 C 15,0 C 15,1 C 56 % 1022,4 hPa 0,0 l/m 3,2 km/h (1 Bft) NW 315 10 min 0,000 mm 981 W/m 6,4 C 15,1 C 14,5 km/h (3 Bft) 100 %
05.04.2017 13:50 15,4 C 15,1 C 15,4 C 56 % 1022,4 hPa 0,0 l/m 6,4 km/h (2 Bft) NW 315 10 min 0,000 mm 814 W/m 6,7 C 15,4 C 16,1 km/h (3 Bft) 100 %
05.04.2017 14:00 15,6 C 15,4 C 15,6 C 51 % 1022,2 hPa 0,0 l/m 1,6 km/h (1 Bft) NW 315 10 min 0,330 mm 784 W/m 5,5 C 15,6 C 9,7 km/h (2 Bft) 100 %
05.04.2017 14:10 15,8 C 15,6 C 15,8 C 55 % 1022,3 hPa 0,0 l/m 1,6 km/h (1 Bft) W-NW 292 10 min 0,000 mm 812 W/m 6,8 C 15,8 C 11,3 km/h (2 Bft) 100 %
05.04.2017 14:20 15,8 C 15,8 C 16,0 C 52 % 1022,2 hPa 0,0 l/m 0,0 km/h (0 Bft) N-NW 337 10 min 0,000 mm 796 W/m 6,0 C 15,8 C 6,4 km/h (2 Bft) 100 %
05.04.2017 14:30 15,6 C 15,5 C 15,8 C 55 % 1022,1 hPa 0,0 l/m 0,0 km/h (0 Bft) NW 315 10 min 0,000 mm 735 W/m 6,6 C 15,6 C 8,0 km/h (2 Bft) 100 %
05.04.2017 14:40 15,5 C 15,5 C 15,6 C 54 % 1022,1 hPa 0,0 l/m 8,0 km/h (2 Bft) NW 315 10 min 0,000 mm 673 W/m 6,2 C 14,6 C 22,5 km/h (4 Bft) 100 %
05.04.2017 14:50 15,4 C 15,4 C 15,6 C 54 % 1021,9 hPa 0,0 l/m 6,4 km/h (2 Bft) NW 315 10 min 0,000 mm 512 W/m 6,1 C 15,4 C 16,1 km/h (3 Bft) 100 %
05.04.2017 15:00 15,6 C 15,4 C 15,6 C 56 % 1021,8 hPa 0,0 l/m 4,8 km/h (1 Bft) W-NW 292 10 min 0,305 mm 538 W/m 6,9 C 15,6 C 14,5 km/h (3 Bft) 100 %
05.04.2017 15:10 15,6 C 15,5 C 15,6 C 54 % 1021,7 hPa 0,0 l/m 6,4 km/h (2 Bft) NW 315 10 min 0,000 mm 503 W/m 6,3 C 15,6 C 14,5 km/h (3 Bft) 100 %
05.04.2017 15:20 15,4 C 15,4 C 15,6 C 53 % 1021,7 hPa 0,0 l/m 3,2 km/h (1 Bft) W-NW 292 10 min 0,000 mm 336 W/m 5,9 C 15,4 C 8,0 km/h (2 Bft) 100 %
05.04.2017 15:30 15,4 C 15,4 C 15,5 C 54 % 1021,7 hPa 0,0 l/m 6,4 km/h (2 Bft) NW 315 10 min 0,000 mm 311 W/m 6,1 C 15,4 C 17,7 km/h (3 Bft) 100 %
05.04.2017 15:40 15,4 C 15,4 C 15,5 C 53 % 1021,6 hPa 0,0 l/m 6,4 km/h (2 Bft) NW 315 10 min 0,000 mm 294 W/m 5,9 C 15,4 C 14,5 km/h (3 Bft) 100 %
05.04.2017 15:50 15,4 C 15,4 C 15,4 C 55 % 1021,3 hPa 0,0 l/m 3,2 km/h (1 Bft) NW 315 10 min 0,000 mm 294 W/m 6,4 C 15,4 C 11,3 km/h (2 Bft) 100 %
05.04.2017 16:00 15,3 C 15,3 C 15,4 C 55 % 1021,3 hPa 0,0 l/m 3,2 km/h (1 Bft) NW 315 10 min 0,178 mm 294 W/m 6,3 C 15,3 C 9,7 km/h (2 Bft) 100 %
05.04.2017 16:10 15,3 C 15,3 C 15,3 C 52 % 1021,2 hPa 0,0 l/m 6,4 km/h (2 Bft) NW 315 10 min 0,000 mm 295 W/m 5,5 C 15,3 C 16,1 km/h (3 Bft) 100 %
05.04.2017 16:20 15,1 C 15,1 C 15,3 C 54 % 1021,2 hPa 0,0 l/m 8,0 km/h (2 Bft) NW 315 10 min 0,000 mm 260 W/m 5,9 C 14,2 C 19,3 km/h (3 Bft) 100 %
05.04.2017 16:30 14,9 C 14,9 C 15,1 C 54 % 1021,2 hPa 0,0 l/m 6,4 km/h (2 Bft) NW 315 10 min 0,000 mm 216 W/m 5,7 C 14,9 C 14,5 km/h (3 Bft) 100 %
05.04.2017 16:40 14,8 C 14,8 C 15,0 C 56 % 1021,2 hPa 0,0 l/m 6,4 km/h (2 Bft) NW 315 10 min 0,000 mm 195 W/m 6,1 C 14,8 C 14,5 km/h (3 Bft) 100 %
05.04.2017 16:50 14,7 C 14,7 C 14,8 C 56 % 1021,1 hPa 0,0 l/m 6,4 km/h (2 Bft) NW 315 10 min 0,000 mm 207 W/m 6,0 C 14,7 C 17,7 km/h (3 Bft) 100 %
05.04.2017 17:00 14,6 C 14,6 C 14,7 C 56 % 1021,2 hPa 0,0 l/m 8,0 km/h (2 Bft) NW 315 10 min 0,152 mm 193 W/m 5,9 C 13,7 C 17,7 km/h (3 Bft) 100 %
05.04.2017 17:10 14,6 C 14,4 C 14,6 C 55 % 1020,9 hPa 0,0 l/m 6,4 km/h (2 Bft) NW 315 10 min 0,000 mm 181 W/m 5,7 C 14,6 C 14,5 km/h (3 Bft) 100 %
05.04.2017 17:20 14,6 C 14,6 C 14,6 C 55 % 1020,8 hPa 0,0 l/m 4,8 km/h (1 Bft) N-NW 337 10 min 0,000 mm 197 W/m 5,7 C 14,6 C 8,0 km/h (2 Bft) 100 %
05.04.2017 17:30 14,7 C 14,6 C 14,7 C 55 % 1020,8 hPa 0,0 l/m 4,8 km/h (1 Bft) N-NW 337 10 min 0,000 mm 171 W/m 5,8 C 14,7 C 9,7 km/h (2 Bft) 100 %
05.04.2017 17:40 14,6 C 14,6 C 14,7 C 54 % 1020,6 hPa 0,0 l/m 6,4 km/h (2 Bft) NW 315 10 min 0,000 mm 160 W/m 5,4 C 14,6 C 11,3 km/h (2 Bft) 100 %
05.04.2017 17:50 14,5 C 14,5 C 14,6 C 54 % 1020,5 hPa 0,0 l/m 4,8 km/h (1 Bft) NW 315 0 min 0,000 mm 148 W/m 5,3 C 14,5 C 9,7 km/h (2 Bft) 99 %
05.04.2017 18:00 14,4 C 14,4 C 14,5 C 55 % 1020,7 hPa 0,0 l/m 4,8 km/h (1 Bft) N-NW 337 0 min 0,102 mm 123 W/m 5,5 C 14,4 C 11,3 km/h (2 Bft) 100 %
05.04.2017 18:10 14,3 C 14,3 C 14,4 C 56 % 1020,7 hPa 0,0 l/m 4,8 km/h (1 Bft) NW 315 0 min 0,000 mm 137 W/m 5,6 C 14,3 C 9,7 km/h (2 Bft) 100 %
05.04.2017 18:20 14,3 C 14,3 C 14,3 C 57 % 1020,7 hPa 0,0 l/m 3,2 km/h (1 Bft) NW 315 0 min 0,000 mm 107 W/m 5,9 C 14,3 C 9,7 km/h (2 Bft) 100 %
05.04.2017 18:30 14,1 C 14,1 C 14,3 C 54 % 1020,7 hPa 0,0 l/m 5,7 km/h (1 Bft) W-NW 303 0 min 0,000 mm 77 W/m 4,9 C 14,1 C 14,5 km/h (3 Bft) 97 %
05.04.2017 18:40 13,8 C 13,8 C 14,1 C 53 % 1020,6 hPa 0,0 l/m 5,7 km/h (1 Bft) W-NW 298 0 min 0,000 mm 77 W/m 4,4 C 13,8 C 14,5 km/h (3 Bft) 98 %
05.04.2017 18:50 13,7 C 13,7 C 13,8 C 54 % 1020,6 hPa 0,0 l/m 3,9 km/h (1 Bft) W-NW 298 0 min 0,000 mm 62 W/m 4,6 C 13,7 C 9,7 km/h (2 Bft) 98 %
05.04.2017 19:00 13,6 C 13,6 C 13,7 C 53 % 1020,6 hPa 0,0 l/m 3,3 km/h (1 Bft) W-NW 287 0 min 0,000 mm 47 W/m 4,2 C 13,6 C 8,0 km/h (2 Bft) 99 %
05.04.2017 19:10 13,4 C 13,4 C 13,6 C 56 % 1020,7 hPa 0,0 l/m 5,1 km/h (1 Bft) W-NW 298 0 min 0,076 mm 35 W/m 4,8 C 13,4 C 12,9 km/h (3 Bft) 100 %
05.04.2017 19:20 13,3 C 13,3 C 13,4 C 55 % 1020,7 hPa 0,0 l/m 5,0 km/h (1 Bft) NW 318 0 min 0,000 mm 30 W/m 4,5 C 13,3 C 11,3 km/h (2 Bft) 99 %
05.04.2017 19:30 13,2 C 13,2 C 13,3 C 54 % 1020,7 hPa 0,0 l/m 6,7 km/h (2 Bft) W-NW 301 0 min 0,000 mm 19 W/m 4,1 C 13,0 C 12,9 km/h (3 Bft) 100 %
05.04.2017 19:40 13,0 C 13,0 C 13,2 C 55 % 1020,7 hPa 0,0 l/m 7,3 km/h (2 Bft) W-NW 298 0 min 0,000 mm 11 W/m 4,2 C 12,4 C 17,7 km/h (3 Bft) 100 %
05.04.2017 19:50 12,7 C 12,7 C 13,0 C 57 % 1020,7 hPa 0,0 l/m 11,0 km/h (2 Bft) W-NW 303 0 min 0,000 mm 5 W/m 4,4 C 10,1 C 25,7 km/h (4 Bft) 100 %
05.04.2017 20:00 12,4 C 12,4 C 12,7 C 60 % 1020,8 hPa 0,0 l/m 11,7 km/h (2 Bft) NW 314 0 min 0,000 mm 0 W/m 4,9 C 9,4 C 24,1 km/h (4 Bft) 100 %
05.04.2017 20:10 12,2 C 12,2 C 12,4 C 62 % 1020,9 hPa 0,0 l/m 12,4 km/h (3 Bft) NW 318 0 min 0,051 mm 0 W/m 5,1 C 8,9 C 24,1 km/h (4 Bft) 100 %
05.04.2017 20:20 11,9 C 11,9 C 12,2 C 63 % 1020,9 hPa 0,0 l/m 10,1 km/h (2 Bft) NW 325 0 min 0,000 mm 0 W/m 5,1 C 9,6 C 20,9 km/h (4 Bft) 100 %
05.04.2017 20:30 11,6 C 11,6 C 11,9 C 64 % 1021,1 hPa 0,0 l/m 8,6 km/h (2 Bft) W-NW 303 0 min 0,000 mm 0 W/m 5,0 C 10,2 C 17,7 km/h (3 Bft) 100 %
05.04.2017 20:40 11,3 C 11,3 C 11,6 C 66 % 1021,3 hPa 0,0 l/m 7,8 km/h (2 Bft) NW 316 0 min 0,000 mm 0 W/m 5,2 C 10,3 C 16,1 km/h (3 Bft) 100 %
05.04.2017 20:50 11,0 C 11,0 C 11,3 C 67 % 1021,5 hPa 0,0 l/m 7,4 km/h (2 Bft) NW 318 0 min 0,000 mm 0 W/m 5,1 C 10,3 C 16,1 km/h (3 Bft) 100 %
05.04.2017 21:00 10,8 C 10,8 C 11,0 C 68 % 1021,5 hPa 0,0 l/m 6,9 km/h (2 Bft) N-NW 327 0 min 0,000 mm 0 W/m 5,1 C 10,5 C 16,1 km/h (3 Bft) 100 %
05.04.2017 21:10 10,6 C 10,6 C 10,8 C 69 % 1021,4 hPa 0,0 l/m 4,7 km/h (1 Bft) N-NW 338 0 min 0,051 mm 0 W/m 5,2 C 10,6 C 16,1 km/h (3 Bft) 100 %
05.04.2017 21:20 10,4 C 10,3 C 10,6 C 70 % 1021,5 hPa 0,0 l/m 2,8 km/h (1 Bft) N-NW 328 0 min 0,000 mm 0 W/m 5,2 C 10,4 C 6,4 km/h (2 Bft) 100 %
05.04.2017 21:30 10,1 C 10,1 C 10,4 C 72 % 1021,5 hPa 0,0 l/m 2,7 km/h (1 Bft) N-NW 333 0 min 0,000 mm 0 W/m 5,3 C 10,1 C 6,4 km/h (2 Bft) 100 %
05.04.2017 21:40 9,8 C 9,8 C 10,1 C 73 % 1021,6 hPa 0,0 l/m 4,2 km/h (1 Bft) NW 310 0 min 0,000 mm 0 W/m 5,2 C 9,8 C 11,3 km/h (2 Bft) 100 %
05.04.2017 21:50 9,6 C 9,6 C 9,8 C 74 % 1021,5 hPa 0,0 l/m 4,8 km/h (1 Bft) NW 315 0 min 0,000 mm 0 W/m 5,2 C 9,6 C 14,5 km/h (3 Bft) 100 %
05.04.2017 22:00 9,4 C 9,4 C 9,6 C 74 % 1021,6 hPa 0,0 l/m 4,8 km/h (1 Bft) NW 315 0 min 0,025 mm 0 W/m 5,0 C 9,4 C 12,9 km/h (3 Bft) 100 %
05.04.2017 22:10 9,2 C 9,2 C 9,4 C 75 % 1021,6 hPa 0,0 l/m 4,8 km/h (1 Bft) NW 315 0 min 0,000 mm 0 W/m 5,0 C 9,2 C 11,3 km/h (2 Bft) 100 %
05.04.2017 22:20 9,1 C 9,1 C 9,2 C 75 % 1021,6 hPa 0,0 l/m 4,8 km/h (1 Bft) NW 315 0 min 0,000 mm 0 W/m 4,9 C 9,1 C 11,3 km/h (2 Bft) 100 %
05.04.2017 22:30 9,1 C 9,1 C 9,1 C 79 % 1021,6 hPa 0,0 l/m 4,8 km/h (1 Bft) NW 315 0 min 0,000 mm 0 W/m 5,7 C 9,1 C 11,3 km/h (2 Bft) 100 %
05.04.2017 22:40 9,1 C 9,1 C 9,1 C 75 % 1021,6 hPa 0,0 l/m 4,8 km/h (1 Bft) NW 315 0 min 0,000 mm 0 W/m 4,9 C 9,1 C 14,5 km/h (3 Bft) 100 %
05.04.2017 22:50 9,1 C 9,1 C 9,2 C 74 % 1021,7 hPa 0,0 l/m 6,4 km/h (2 Bft) NW 315 0 min 0,000 mm 0 W/m 4,7 C 9,1 C 16,1 km/h (3 Bft) 100 %
05.04.2017 23:00 9,2 C 9,2 C 9,2 C 73 % 1021,7 hPa 0,0 l/m 8,0 km/h (2 Bft) NW 315 0 min 0,025 mm 0 W/m 4,6 C 8,0 C 16,1 km/h (3 Bft) 100 %
05.04.2017 23:10 9,2 C 9,2 C 9,2 C 73 % 1021,8 hPa 0,0 l/m 4,8 km/h (1 Bft) NW 315 0 min 0,000 mm 0 W/m 4,6 C 9,2 C 11,3 km/h (2 Bft) 100 %
05.04.2017 23:20 9,0 C 9,0 C 9,2 C 73 % 1021,8 hPa 0,0 l/m 4,8 km/h (1 Bft) NW 315 0 min 0,000 mm 0 W/m 4,4 C 9,0 C 11,3 km/h (2 Bft) 100 %
05.04.2017 23:30 8,8 C 8,8 C 9,0 C 74 % 1021,9 hPa 0,0 l/m 1,6 km/h (1 Bft) NW 315 0 min 0,000 mm 0 W/m 4,4 C 8,8 C 11,3 km/h (2 Bft) 100 %
05.04.2017 23:40 8,6 C 8,6 C 8,8 C 75 % 1021,9 hPa 0,0 l/m 0,0 km/h (0 Bft) NW 315 0 min 0,000 mm 0 W/m 4,4 C 8,6 C 6,4 km/h (2 Bft) 99 %
05.04.2017 23:50 8,3 C 8,3 C 8,6 C 75 % 1022,0 hPa 0,0 l/m 1,6 km/h (1 Bft) NW 315 0 min 0,000 mm 0 W/m 4,1 C 8,3 C 11,3 km/h (2 Bft) 100 %
_ Min-Zeit 05:50 05:50 05:40 14:00 17:50 - 00:00 - - - - - 05:50 05:50 00:20 07:40
Minimum _ 2,3 C 2,3 C 2,4 C 51 % 1020,5 hPa - 0,0 km/h (0 Bft) - - - - - 1,0 C 2,3 C 0,0 km/h (0 Bft) 90 %
_ Max-Zeit 14:20 14:20 14:20 04:20 10:10 00:00 20:10 - - 08:30 13:00 13:20 10:50 14:10 19:50 00:00
Maximum _ 16,0 C 15,8 C 16,0 C 91 % 1023,6 hPa 0,0 l/m 12,4 km/h
NW (3 Bft)
- - 10 min 0,356 mm 1002 W/m 8,2 C 15,8 C 25,7 km/h
NW (4 Bft)
100 %
Durchschnitt _ 9,5 C 9,4 C 9,6 C 73 % 1022,0 hPa #0,0 l/m 2,6 km/h (1 Bft) NW - #9:20 h #2,438 mm 376 W/m 4,6 C 9,4 C 7,8 km/h (2 Bft) 100 %
PRIVATE WETTERSTATION BILLIGHEIM-ALLFELD - www.neckar-odenwald-wetter.de - Holger Sonntag